MSAC 061550Z 10004KT CAVOK 31/15 Q1012 A2989
From batch tds/metars/production/2022/12/6/h16_m59_metars.cache.csv.gz
Observed at (about 1 hour ago)
Identifier MSAC
MSSA 061550Z 00000KT CAVOK 26/16 Q1021 A3016
From batch tds/metars/production/2022/12/6/h16_m59_metars.cache.csv.gz
Observed at (about 1 hour ago)
Identifier MSSA
MSSM 061550Z 36002KT CAVOK 28/20 Q1014 A2996
From batch tds/metars/production/2022/12/6/h16_m59_metars.cache.csv.gz
Observed at (about 1 hour ago)
Identifier MSSM
MSSS 061550Z 33009KT CAVOK 24/16 Q1018 A3008
From batch tds/metars/production/2022/12/6/h16_m59_metars.cache.csv.gz
Observed at (about 1 hour ago)
Identifier MSSS
CBAR 061600Z AUTO 11010KT ////SM NCD M32/M35 A3005
From batch tds/metars/production/2022/12/6/h16_m59_metars.cache.csv.gz
Observed at (about 1 hour ago)
Identifier CBAR
CPBT 061600Z AUTO 09009KT M21/M24 RMK AO1 T12111236
From batch tds/metars/production/2022/12/6/h16_m59_metars.cache.csv.gz
Observed at (about 1 hour ago)
Identifier CPBT
CPEH 061600Z AUTO 00000KT M22/M25 RMK AO1 T12151253
From batch tds/metars/production/2022/12/6/h16_m59_metars.cache.csv.gz
Observed at (about 1 hour ago)
Identifier CPEH
CPFI 061600Z AUTO 05006KT M22/M25 RMK AO1 T12221248
From batch tds/metars/production/2022/12/6/h16_m59_metars.cache.csv.gz
Observed at (about 1 hour ago)
Identifier CPFI
CPIN 061600Z AUTO 31021KT ////SM ////// ///// A////
From batch tds/metars/production/2022/12/6/h16_m59_metars.cache.csv.gz
Observed at (about 1 hour ago)
Identifier CPIN
CPIR 061600Z AUTO 05006KT M22/M24 RMK AO1 T12231244
From batch tds/metars/production/2022/12/6/h16_m59_metars.cache.csv.gz
Observed at (about 1 hour ago)
Identifier CPIR
CPRO 061600Z AUTO 05006KT M25/M27 RMK AO1 T12471273 50005
From batch tds/metars/production/2022/12/6/h16_m59_metars.cache.csv.gz
Observed at (about 1 hour ago)
Identifier CPRO
CPRY 061600Z AUTO 07008KT M21/M24 RMK AO1 T12101238 50004
From batch tds/metars/production/2022/12/6/h16_m59_metars.cache.csv.gz
Observed at (about 1 hour ago)
Identifier CPRY
CPST 061600Z AUTO 13005KT M24/M27 RMK AO1 T12441269
From batch tds/metars/production/2022/12/6/h16_m59_metars.cache.csv.gz
Observed at (about 1 hour ago)
Identifier CPST
CWAF 061600Z AUTO 14007KT 03/M00 RMK AO1 T00321001
From batch tds/metars/production/2022/12/6/h16_m59_metars.cache.csv.gz
Observed at (about 1 hour ago)
Identifier CWAF
CWAJ 061600Z AUTO 13008KT RMK AO1 50003
From batch tds/metars/production/2022/12/6/h16_m59_metars.cache.csv.gz
Observed at (about 1 hour ago)
Identifier CWAJ
CWBS 061600Z AUTO 03003KT 05/M00 RMK AO1 T00461003
From batch tds/metars/production/2022/12/6/h16_m59_metars.cache.csv.gz
Observed at (about 1 hour ago)
Identifier CWBS
CWDA 061600Z AUTO 00000KT 02/ RMK AO1 T0023
From batch tds/metars/production/2022/12/6/h16_m59_metars.cache.csv.gz
Observed at (about 1 hour ago)
Identifier CWDA
CWDT 061600Z AUTO 09004KT RMK AO1 0007 50021
From batch tds/metars/production/2022/12/6/h16_m59_metars.cache.csv.gz
Observed at (about 1 hour ago)
Identifier CWDT
talk